Time;durP1;ratioP1;P1;durP2;ratioP2;P2;SDS_P1;SDS_P2;PMS_P1;PMS_P2;Temp;Humidity;BMP_temperature;BMP_pressure;BME280_temperature;BME280_humidity;BME280_pressure;Samples;Min_cycle;Max_cycle;Signal;HPM_P1;HPM_P2
2023/10/24 00:00:02;;;;;;;1.95;1.60;;;;;;;;;;6246815;28;20486;-73
2023/10/24 00:03:14;;;;;;;1.70;1.60;;;;;;;;;;6256714;28;20616;-74
2023/10/24 00:06:20;;;;;;;3.17;1.80;;;;;;;;;;6257597;28;20295;-74
2023/10/24 00:09:24;;;;;;;3.30;1.60;;;;;;;;;;6257127;28;20247;-72
2023/10/24 00:12:28;;;;;;;1.85;1.50;;;;;;;;;;6255448;28;20295;-73
2023/10/24 00:15:32;;;;;;;4.45;2.00;;;;;;;;;;6257294;28;20307;-72
2023/10/24 00:18:35;;;;;;;1.73;1.63;;;;;;;;;;6257019;28;20291;-74
2023/10/24 00:21:41;;;;;;;1.98;1.60;;;;;;;;;;6257293;28;20303;-73
2023/10/24 00:24:45;;;;;;;1.77;1.70;;;;;;;;;;6257156;28;20596;-73
2023/10/24 00:27:49;;;;;;;1.55;1.45;;;;;;;;;;6248390;28;20303;-72
2023/10/24 00:30:52;;;;;;;1.70;1.60;;;;;;;;;;6257126;28;20315;-73
2023/10/24 00:33:56;;;;;;;1.80;1.80;;;;;;;;;;6279996;28;20354;-73
2023/10/24 00:37:01;;;;;;;2.60;1.98;;;;;;;;;;6281986;28;20294;-74
2023/10/24 00:40:07;;;;;;;2.00;1.90;;;;;;;;;;6281029;28;20298;-72
2023/10/24 00:43:11;;;;;;;1.75;1.70;;;;;;;;;;6284467;28;20315;-72
2023/10/24 00:46:17;;;;;;;2.58;1.70;;;;;;;;;;6282217;28;20608;-73
2023/10/24 00:49:21;;;;;;;1.90;1.77;;;;;;;;;;6279282;28;20306;-73
2023/10/24 00:52:27;;;;;;;2.10;1.92;;;;;;;;;;6270332;28;20627;-73
2023/10/24 00:55:31;;;;;;;1.60;1.60;;;;;;;;;;6281234;28;20276;-74
2023/10/24 00:58:37;;;;;;;1.48;1.45;;;;;;;;;;6279242;28;20306;-72
2023/10/24 01:01:41;;;;;;;1.75;1.75;;;;;;;;;;6268973;28;20283;-72
2023/10/24 01:04:45;;;;;;;1.73;1.63;;;;;;;;;;6271375;28;20295;-72
2023/10/24 01:07:51;;;;;;;1.80;1.70;;;;;;;;;;6281257;28;20295;-74
2023/10/24 01:10:55;;;;;;;2.47;1.70;;;;;;;;;;6277819;28;20306;-73
2023/10/24 01:14:01;;;;;;;1.90;1.80;;;;;;;;;;6280907;28;20286;-76
2023/10/24 01:17:10;;;;;;;1.80;1.70;;;;;;;;;;6279141;28;20287;-72
2023/10/24 01:20:14;;;;;;;1.23;1.23;;;;;;;;;;6278920;28;20300;-73
2023/10/24 01:23:20;;;;;;;1.63;1.52;;;;;;;;;;6269248;28;20564;-72
2023/10/24 01:26:24;;;;;;;1.42;1.42;;;;;;;;;;6280988;28;20469;-72
2023/10/24 01:29:28;;;;;;;2.47;1.50;;;;;;;;;;6278080;28;20457;-72
2023/10/24 01:32:32;;;;;;;2.25;1.77;;;;;;;;;;6280362;28;20290;-72
2023/10/24 01:35:36;;;;;;;1.20;1.20;;;;;;;;;;6280456;28;20291;-72
2023/10/24 01:38:42;;;;;;;1.55;1.50;;;;;;;;;;6279881;28;20326;-72
2023/10/24 01:41:46;;;;;;;1.52;1.52;;;;;;;;;;6280040;28;20294;-73
2023/10/24 01:44:50;;;;;;;1.73;1.63;;;;;;;;;;6278128;28;20386;-73
2023/10/24 01:47:53;;;;;;;2.05;1.45;;;;;;;;;;6279801;28;20307;-74
2023/10/24 01:50:57;;;;;;;2.20;1.33;;;;;;;;;;6279325;28;20340;-73
2023/10/24 01:54:04;;;;;;;3.45;1.60;;;;;;;;;;6294155;28;20298;-73
2023/10/24 01:57:08;;;;;;;1.63;1.63;;;;;;;;;;6294930;28;20472;-72
2023/10/24 02:00:13;;;;;;;1.48;1.27;;;;;;;;;;6277607;28;20588;-72
2023/10/24 02:03:17;;;;;;;2.55;1.60;;;;;;;;;;6277499;28;20303;-72
2023/10/24 02:06:21;;;;;;;1.70;1.70;;;;;;;;;;6279749;28;20291;-72
2023/10/24 02:09:29;;;;;;;1.60;1.50;;;;;;;;;;6277110;28;20595;-73
2023/10/24 02:12:33;;;;;;;1.63;1.60;;;;;;;;;;6275492;28;20314;-73
2023/10/24 02:15:37;;;;;;;1.55;1.55;;;;;;;;;;6279554;28;20330;-73
2023/10/24 02:18:41;;;;;;;1.20;1.20;;;;;;;;;;6267839;28;20322;-74
2023/10/24 02:21:45;;;;;;;1.60;1.60;;;;;;;;;;6279518;28;20534;-72
2023/10/24 02:24:50;;;;;;;1.42;1.40;;;;;;;;;;6279065;28;20273;-73
2023/10/24 02:27:54;;;;;;;1.98;1.40;;;;;;;;;;6277450;28;20295;-72
2023/10/24 02:31:02;;;;;;;1.85;1.73;;;;;;;;;;6279713;28;20611;-74
2023/10/24 02:34:06;;;;;;;1.42;1.42;;;;;;;;;;6254172;28;20295;-72
2023/10/24 02:37:10;;;;;;;1.50;1.50;;;;;;;;;;6254506;28;20318;-72
2023/10/24 02:40:15;;;;;;;1.55;1.55;;;;;;;;;;6252320;28;20308;-73
2023/10/24 02:43:19;;;;;;;1.50;1.50;;;;;;;;;;6253796;28;20307;-72
2023/10/24 02:46:23;;;;;;;2.92;1.88;;;;;;;;;;6253017;28;20307;-74
2023/10/24 02:49:28;;;;;;;2.30;1.70;;;;;;;;;;6253895;28;20299;-73
2023/10/24 02:52:32;;;;;;;3.13;1.70;;;;;;;;;;6254505;28;20236;-72
2023/10/24 02:55:37;;;;;;;1.48;1.48;;;;;;;;;;6252387;28;20318;-72
2023/10/24 02:58:42;;;;;;;1.67;1.58;;;;;;;;;;6252238;28;20311;-73
2023/10/24 03:01:46;;;;;;;1.73;1.73;;;;;;;;;;6267696;28;20299;-72
2023/10/24 03:04:50;;;;;;;2.80;1.42;;;;;;;;;;6273573;28;20294;-73
2023/10/24 03:07:54;;;;;;;1.40;1.40;;;;;;;;;;6282812;28;20378;-73
2023/10/24 03:11:00;;;;;;;1.33;1.33;;;;;;;;;;6281206;28;20298;-73
2023/10/24 03:14:03;;;;;;;1.42;1.40;;;;;;;;;;6252868;28;20287;-72
2023/10/24 03:17:07;;;;;;;1.30;1.30;;;;;;;;;;6283897;28;20302;-72
2023/10/24 03:20:12;;;;;;;1.70;1.60;;;;;;;;;;6272381;28;20358;-72
2023/10/24 03:23:16;;;;;;;1.50;1.40;;;;;;;;;;6259237;28;20287;-73
2023/10/24 03:26:22;;;;;;;1.52;1.42;;;;;;;;;;6258246;28;20370;-73
2023/10/24 03:29:25;;;;;;;1.40;1.40;;;;;;;;;;6254070;28;20306;-72
2023/10/24 03:32:29;;;;;;;3.38;1.45;;;;;;;;;;6265160;28;20303;-72
2023/10/24 03:35:33;;;;;;;1.70;1.67;;;;;;;;;;6258091;28;20576;-74
2023/10/24 03:38:37;;;;;;;1.77;1.67;;;;;;;;;;6279651;28;20302;-74
2023/10/24 03:41:42;;;;;;;2.10;2.10;;;;;;;;;;6282607;28;20299;-72
2023/10/24 03:44:46;;;;;;;1.50;1.50;;;;;;;;;;6282078;28;20298;-72
2023/10/24 03:47:51;;;;;;;1.50;1.40;;;;;;;;;;6282918;28;20298;-72
2023/10/24 03:50:55;;;;;;;2.47;1.48;;;;;;;;;;6282213;28;20286;-75
2023/10/24 03:53:58;;;;;;;1.67;1.50;;;;;;;;;;6282220;28;20362;-73
2023/10/24 03:57:04;;;;;;;1.50;1.50;;;;;;;;;;6282469;28;20378;-73
2023/10/24 04:00:09;;;;;;;1.40;1.40;;;;;;;;;;6282166;28;20298;-73
2023/10/24 04:03:16;;;;;;;1.40;1.40;;;;;;;;;;6281999;28;20567;-72
2023/10/24 04:06:23;;;;;;;2.88;1.48;;;;;;;;;;6282017;28;20462;-74
2023/10/24 04:09:26;;;;;;;1.63;1.52;;;;;;;;;;6281813;28;20291;-73
2023/10/24 04:12:43;;;;;;;1.48;1.38;;;;;;;;;;6281170;28;20310;-74
2023/10/24 04:15:47;;;;;;;1.63;1.63;;;;;;;;;;6280435;28;20585;-73
2023/10/24 04:18:51;;;;;;;1.50;1.50;;;;;;;;;;6281724;28;20607;-72
2023/10/24 04:21:55;;;;;;;1.48;1.48;;;;;;;;;;6281663;28;20296;-73
2023/10/24 04:24:59;;;;;;;1.38;1.38;;;;;;;;;;6281424;28;20370;-73
2023/10/24 04:28:04;;;;;;;4.13;1.58;;;;;;;;;;6282231;28;20294;-73
2023/10/24 04:31:09;;;;;;;1.40;1.40;;;;;;;;;;6280986;28;20314;-72
2023/10/24 04:34:13;;;;;;;1.40;1.40;;;;;;;;;;6281354;28;20568;-73
2023/10/24 04:37:17;;;;;;;1.48;1.48;;;;;;;;;;6281602;28;20339;-72
2023/10/24 04:40:21;;;;;;;1.55;1.45;;;;;;;;;;6281097;28;20326;-73
2023/10/24 04:43:26;;;;;;;1.60;1.60;;;;;;;;;;6279808;28;20299;-73
2023/10/24 04:46:30;;;;;;;1.52;1.48;;;;;;;;;;6281512;28;20310;-72
2023/10/24 04:49:37;;;;;;;1.38;1.38;;;;;;;;;;6281204;28;20483;-72
2023/10/24 04:52:41;;;;;;;1.73;1.63;;;;;;;;;;6281332;28;20303;-73
2023/10/24 04:55:45;;;;;;;1.30;1.30;;;;;;;;;;6279833;28;20298;-73
2023/10/24 04:58:50;;;;;;;1.38;1.38;;;;;;;;;;6280198;28;20327;-73
2023/10/24 05:01:55;;;;;;;1.70;1.70;;;;;;;;;;6279362;28;20311;-71
2023/10/24 05:04:59;;;;;;;1.70;1.60;;;;;;;;;;6280258;28;20291;-72
2023/10/24 05:08:10;;;;;;;2.25;1.63;;;;;;;;;;6280767;28;20286;-73
2023/10/24 05:11:13;;;;;;;1.40;1.40;;;;;;;;;;6278433;28;20369;-72
2023/10/24 05:14:19;;;;;;;2.03;1.50;;;;;;;;;;6280167;28;20302;-72
2023/10/24 05:17:23;;;;;;;1.70;1.60;;;;;;;;;;6280537;28;20298;-73
2023/10/24 05:20:26;;;;;;;3.30;1.60;;;;;;;;;;6280175;28;20291;-73
2023/10/24 05:23:30;;;;;;;1.75;1.75;;;;;;;;;;6278465;28;20334;-72
2023/10/24 05:26:34;;;;;;;2.00;1.52;;;;;;;;;;6278821;28;20291;-73
2023/10/24 05:29:42;;;;;;;1.77;1.40;;;;;;;;;;6279897;28;20286;-73
2023/10/24 05:32:46;;;;;;;2.70;1.67;;;;;;;;;;6280297;28;20343;-72
2023/10/24 05:35:50;;;;;;;1.77;1.75;;;;;;;;;;6279767;28;20322;-74
2023/10/24 05:38:55;;;;;;;2.00;1.90;;;;;;;;;;6279974;28;20286;-75
2023/10/24 05:41:59;;;;;;;2.35;2.20;;;;;;;;;;6279733;28;20291;-73
2023/10/24 05:45:05;;;;;;;3.17;1.90;;;;;;;;;;6279646;28;20306;-73
2023/10/24 05:48:09;;;;;;;3.83;3.53;;;;;;;;;;6280031;28;20314;-72
2023/10/24 05:51:22;;;;;;;2.90;2.47;;;;;;;;;;6279482;28;20295;-74
2023/10/24 05:54:26;;;;;;;2.05;1.95;;;;;;;;;;6284908;28;20607;-73
2023/10/24 05:57:30;;;;;;;1.70;1.70;;;;;;;;;;6280902;28;20562;-73
2023/10/24 06:00:35;;;;;;;1.60;1.60;;;;;;;;;;6277884;28;20394;-71
2023/10/24 06:03:39;;;;;;;1.60;1.50;;;;;;;;;;6279769;28;20374;-74
2023/10/24 06:06:43;;;;;;;2.13;2.13;;;;;;;;;;6277419;28;20638;-73
2023/10/24 06:09:48;;;;;;;2.00;1.90;;;;;;;;;;6285049;28;20503;-74
2023/10/24 06:12:52;;;;;;;2.20;2.10;;;;;;;;;;6268246;28;20253;-74
2023/10/24 06:16:06;;;;;;;2.00;1.90;;;;;;;;;;6279117;28;20304;-74
2023/10/24 06:19:11;;;;;;;1.98;1.85;;;;;;;;;;6231566;28;20576;-72
2023/10/24 06:22:15;;;;;;;1.98;1.85;;;;;;;;;;6278958;28;20310;-72
2023/10/24 06:25:18;;;;;;;2.17;2.08;;;;;;;;;;6279132;28;20303;-72
2023/10/24 06:28:22;;;;;;;2.00;2.00;;;;;;;;;;6279820;28;20302;-74
2023/10/24 06:31:28;;;;;;;2.10;2.00;;;;;;;;;;6278822;28;20900;-72
2023/10/24 06:34:33;;;;;;;2.20;2.10;;;;;;;;;;6279099;28;20298;-72
2023/10/24 06:37:37;;;;;;;1.80;1.80;;;;;;;;;;6279374;28;20595;-72
2023/10/24 06:40:45;;;;;;;1.80;1.70;;;;;;;;;;6278732;28;20302;-74
2023/10/24 06:43:49;;;;;;;2.13;1.95;;;;;;;;;;6283551;28;20302;-75
2023/10/24 06:46:55;;;;;;;2.65;1.95;;;;;;;;;;6279644;28;20342;-73
2023/10/24 06:49:59;;;;;;;2.20;2.03;;;;;;;;;;6276192;28;20490;-75
2023/10/24 06:53:03;;;;;;;1.92;1.92;;;;;;;;;;6286502;28;20295;-75
2023/10/24 06:56:08;;;;;;;3.72;2.13;;;;;;;;;;6250234;28;20310;-72
2023/10/24 06:59:12;;;;;;;2.35;2.15;;;;;;;;;;6279107;28;20298;-69
2023/10/24 07:02:18;;;;;;;2.28;2.17;;;;;;;;;;6270557;28;20566;-69
2023/10/24 07:05:22;;;;;;;1.92;1.83;;;;;;;;;;6277213;28;20295;-70
2023/10/24 07:08:26;;;;;;;3.45;2.30;;;;;;;;;;6279300;28;20354;-72
2023/10/24 07:11:30;;;;;;;2.10;2.00;;;;;;;;;;6237106;28;20303;-71
2023/10/24 07:14:34;;;;;;;3.97;2.40;;;;;;;;;;6254036;28;20586;-72
2023/10/24 07:17:39;;;;;;;2.22;2.08;;;;;;;;;;6242677;28;20303;-71
2023/10/24 07:20:43;;;;;;;4.68;2.42;;;;;;;;;;6254209;28;20318;-71
2023/10/24 07:23:47;;;;;;;2.10;2.00;;;;;;;;;;6254198;28;20294;-72
2023/10/24 07:26:51;;;;;;;4.13;2.42;;;;;;;;;;6254538;28;20339;-72
2023/10/24 07:29:55;;;;;;;2.50;2.35;;;;;;;;;;6253876;28;20291;-73
2023/10/24 07:33:00;;;;;;;2.40;2.30;;;;;;;;;;6269857;28;20333;-72
2023/10/24 07:36:05;;;;;;;2.83;2.10;;;;;;;;;;6276783;28;20311;-73
2023/10/24 07:39:09;;;;;;;3.35;2.30;;;;;;;;;;6278219;28;20497;-73
2023/10/24 07:42:13;;;;;;;2.30;2.20;;;;;;;;;;6275703;28;20302;-72
2023/10/24 07:45:17;;;;;;;2.13;2.13;;;;;;;;;;6276684;28;20303;-72
2023/10/24 07:48:24;;;;;;;2.63;2.22;;;;;;;;;;6274497;28;20519;-71
2023/10/24 07:51:31;;;;;;;4.28;2.13;;;;;;;;;;6288004;28;20456;-72
2023/10/24 07:54:35;;;;;;;3.00;2.30;;;;;;;;;;6279428;28;20250;-73
2023/10/24 07:57:39;;;;;;;2.67;2.15;;;;;;;;;;6258220;28;20312;-72
2023/10/24 08:00:43;;;;;;;2.10;2.00;;;;;;;;;;6246489;28;20385;-72
2023/10/24 08:03:49;;;;;;;2.42;2.22;;;;;;;;;;6255478;28;20298;-73
2023/10/24 08:06:53;;;;;;;4.93;2.25;;;;;;;;;;6264945;28;20287;-73
2023/10/24 08:09:57;;;;;;;2.40;2.22;;;;;;;;;;6256264;28;20509;-73
2023/10/24 08:13:01;;;;;;;4.07;2.55;;;;;;;;;;6281202;28;20473;-73
2023/10/24 08:16:05;;;;;;;2.20;2.10;;;;;;;;;;6282059;28;20299;-75
2023/10/24 08:19:10;;;;;;;2.70;2.50;;;;;;;;;;6262061;28;20315;-73
2023/10/24 08:22:14;;;;;;;2.38;2.15;;;;;;;;;;6282379;28;20298;-74
2023/10/24 08:25:18;;;;;;;2.47;1.98;;;;;;;;;;6271886;28;20322;-73
2023/10/24 08:28:22;;;;;;;2.20;2.10;;;;;;;;;;6282968;28;20311;-73
2023/10/24 08:31:27;;;;;;;2.20;2.10;;;;;;;;;;6261945;28;20566;-74
2023/10/24 08:34:36;;;;;;;2.47;2.38;;;;;;;;;;6282380;28;20311;-74
2023/10/24 08:37:40;;;;;;;2.15;2.05;;;;;;;;;;6282867;28;20295;-73
2023/10/24 08:40:45;;;;;;;2.15;2.00;;;;;;;;;;6287001;28;20318;-77
2023/10/24 08:43:50;;;;;;;2.25;2.05;;;;;;;;;;6281819;28;20291;-72
2023/10/24 08:46:54;;;;;;;3.08;2.78;;;;;;;;;;6282559;28;20287;-72
2023/10/24 08:50:01;;;;;;;2.00;2.00;;;;;;;;;;6281467;28;20287;-72
2023/10/24 08:53:05;;;;;;;3.47;2.10;;;;;;;;;;6273123;28;20306;-74
2023/10/24 08:56:10;;;;;;;3.20;1.80;;;;;;;;;;6264439;28;20323;-73
2023/10/24 08:59:18;;;;;;;3.28;2.15;;;;;;;;;;6256521;28;20295;-72
2023/10/24 09:02:24;;;;;;;2.10;2.00;;;;;;;;;;6256928;28;20295;-73
2023/10/24 09:05:31;;;;;;;2.10;2.08;;;;;;;;;;6253908;28;20299;-72
2023/10/24 09:08:35;;;;;;;2.53;1.80;;;;;;;;;;6262534;28;20310;-72
2023/10/24 09:11:56;;;;;;;2.00;1.90;;;;;;;;;;6274996;28;20294;-71
2023/10/24 09:15:01;;;;;;;2.20;2.10;;;;;;;;;;6270200;28;20303;-73
2023/10/24 09:18:05;;;;;;;1.70;1.70;;;;;;;;;;6270522;28;20316;-71
2023/10/24 09:21:11;;;;;;;2.42;2.22;;;;;;;;;;6280827;28;20462;-72
2023/10/24 09:24:16;;;;;;;2.03;1.92;;;;;;;;;;6269438;28;20318;-73
2023/10/24 09:27:24;;;;;;;1.63;1.42;;;;;;;;;;6280874;28;20287;-73
2023/10/24 09:30:34;;;;;;;3.00;2.20;;;;;;;;;;6280440;28;20303;-75
2023/10/24 09:33:39;;;;;;;1.70;1.70;;;;;;;;;;6279536;28;20497;-74
2023/10/24 09:36:45;;;;;;;1.77;1.67;;;;;;;;;;6280799;28;20338;-74
2023/10/24 09:39:55;;;;;;;1.70;1.70;;;;;;;;;;6280739;28;20291;-74
2023/10/24 09:43:00;;;;;;;2.17;2.08;;;;;;;;;;6280372;28;20312;-73
2023/10/24 09:46:04;;;;;;;1.88;1.70;;;;;;;;;;6270037;28;20314;-72
2023/10/24 09:49:09;;;;;;;3.42;2.10;;;;;;;;;;6279652;28;20303;-72
2023/10/24 09:52:15;;;;;;;2.08;1.98;;;;;;;;;;6280713;28;20350;-72
2023/10/24 09:55:19;;;;;;;1.80;1.70;;;;;;;;;;6277132;28;20298;-73
2023/10/24 09:58:25;;;;;;;1.70;1.70;;;;;;;;;;6287668;28;20363;-74
2023/10/24 10:01:30;;;;;;;1.95;1.63;;;;;;;;;;6279718;28;20292;-72
2023/10/24 10:04:34;;;;;;;2.15;2.05;;;;;;;;;;6280084;28;20291;-72
2023/10/24 10:07:41;;;;;;;1.90;1.80;;;;;;;;;;6280096;28;20318;-73
2023/10/24 10:10:46;;;;;;;2.00;1.90;;;;;;;;;;6277027;28;20282;-73
2023/10/24 10:13:53;;;;;;;1.83;1.80;;;;;;;;;;6279616;28;20398;-77
2023/10/24 10:17:06;;;;;;;2.13;2.00;;;;;;;;;;6280052;28;20303;-74
2023/10/24 10:20:21;;;;;;;2.00;1.90;;;;;;;;;;6278428;28;20317;-72
2023/10/24 10:23:41;;;;;;;1.70;1.70;;;;;;;;;;6280173;28;20415;-76
2023/10/24 10:26:59;;;;;;;1.63;1.52;;;;;;;;;;6269044;28;20332;-74
2023/10/24 10:30:11;;;;;;;2.67;1.70;;;;;;;;;;6279312;28;20295;-74
2023/10/24 10:33:27;;;;;;;2.08;1.80;;;;;;;;;;6279712;28;20339;-73
2023/10/24 10:36:31;;;;;;;3.15;1.70;;;;;;;;;;6278843;28;20334;-72
2023/10/24 10:39:36;;;;;;;1.67;1.60;;;;;;;;;;6278838;28;20439;-72
2023/10/24 10:42:47;;;;;;;1.58;1.58;;;;;;;;;;6279460;28;20355;-73
2023/10/24 10:45:51;;;;;;;2.00;2.00;;;;;;;;;;6278973;28;20348;-72
2023/10/24 10:48:58;;;;;;;1.60;1.60;;;;;;;;;;6278889;28;20314;-72
2023/10/24 10:52:02;;;;;;;1.80;1.70;;;;;;;;;;6264517;28;20286;-73
2023/10/24 10:55:38;;;;;;;2.45;2.33;;;;;;;;;;6286964;28;20242;-72
2023/10/24 10:58:52;;;;;;;1.95;1.85;;;;;;;;;;6271244;28;20314;-73
2023/10/24 11:02:07;;;;;;;1.88;1.77;;;;;;;;;;6284438;28;20607;-73
2023/10/24 11:05:50;;;;;;;1.80;1.70;;;;;;;;;;6278732;28;20318;-74
2023/10/24 11:09:07;;;;;;;1.90;1.90;;;;;;;;;;6274379;28;20301;-73
2023/10/24 11:12:27;;;;;;;2.17;1.85;;;;;;;;;;6277429;28;20295;-73
2023/10/24 11:15:31;;;;;;;1.67;1.67;;;;;;;;;;6267484;28;20450;-73
2023/10/24 11:18:36;;;;;;;1.70;1.60;;;;;;;;;;6277647;28;20357;-74
2023/10/24 11:21:40;;;;;;;1.40;1.40;;;;;;;;;;6268235;28;20297;-75
2023/10/24 11:24:44;;;;;;;1.52;1.42;;;;;;;;;;6263648;28;20287;-74
2023/10/24 11:27:51;;;;;;;2.47;1.55;;;;;;;;;;6283636;28;20310;-72
2023/10/24 11:30:55;;;;;;;1.40;1.40;;;;;;;;;;6283172;28;20298;-74
2023/10/24 11:33:59;;;;;;;1.60;1.50;;;;;;;;;;6283025;28;20295;-75
2023/10/24 11:37:04;;;;;;;1.75;1.65;;;;;;;;;;6272238;28;20387;-73
2023/10/24 11:40:09;;;;;;;1.90;1.80;;;;;;;;;;6283296;28;20307;-73
2023/10/24 11:43:17;;;;;;;2.03;1.95;;;;;;;;;;6283408;28;20627;-73
2023/10/24 11:46:21;;;;;;;4.82;2.33;;;;;;;;;;6279370;28;20302;-73
2023/10/24 11:49:33;;;;;;;2.05;1.95;;;;;;;;;;6281354;28;20326;-72
2023/10/24 11:52:37;;;;;;;1.90;1.80;;;;;;;;;;6285845;28;20314;-72
2023/10/24 11:55:40;;;;;;;1.73;1.63;;;;;;;;;;6282020;28;20236;-72
2023/10/24 11:58:46;;;;;;;1.70;1.60;;;;;;;;;;6280563;28;20294;-72
2023/10/24 12:01:50;;;;;;;1.83;1.73;;;;;;;;;;6290350;28;20307;-74
2023/10/24 12:04:55;;;;;;;2.80;1.88;;;;;;;;;;6282412;28;20291;-72
2023/10/24 12:08:00;;;;;;;2.08;1.73;;;;;;;;;;6282855;28;20296;-74
2023/10/24 12:11:04;;;;;;;1.75;1.70;;;;;;;;;;6280488;28;20310;-71
2023/10/24 12:14:09;;;;;;;7.93;3.80;;;;;;;;;;6270621;28;20306;-72
2023/10/24 12:17:14;;;;;;;1.90;1.80;;;;;;;;;;6282407;28;20482;-72
2023/10/24 12:20:18;;;;;;;1.88;1.75;;;;;;;;;;6281785;28;20402;-73
2023/10/24 12:23:23;;;;;;;1.85;1.85;;;;;;;;;;6273836;28;20306;-74
2023/10/24 12:26:27;;;;;;;1.70;1.70;;;;;;;;;;6281815;28;20374;-72
2023/10/24 12:29:32;;;;;;;2.05;1.80;;;;;;;;;;6281514;28;20326;-72
2023/10/24 12:32:37;;;;;;;1.70;1.70;;;;;;;;;;6282445;28;20303;-73
2023/10/24 12:35:41;;;;;;;1.73;1.73;;;;;;;;;;6280644;28;20304;-73
2023/10/24 12:39:03;;;;;;;1.90;1.80;;;;;;;;;;6268285;28;20439;-73
2023/10/24 12:42:07;;;;;;;1.80;1.70;;;;;;;;;;6281894;28;20303;-72
2023/10/24 12:45:12;;;;;;;1.88;1.77;;;;;;;;;;6281488;28;20302;-75
2023/10/24 12:48:16;;;;;;;1.65;1.55;;;;;;;;;;6268019;28;20238;-73
2023/10/24 12:51:23;;;;;;;1.90;1.80;;;;;;;;;;6280930;28;20322;-76
2023/10/24 12:54:26;;;;;;;1.70;1.58;;;;;;;;;;6285734;28;20396;-73
2023/10/24 12:57:30;;;;;;;1.70;1.60;;;;;;;;;;6281889;28;20302;-73
2023/10/24 13:00:35;;;;;;;1.92;1.85;;;;;;;;;;6281405;28;20615;-74
2023/10/24 13:03:40;;;;;;;1.98;1.88;;;;;;;;;;6286798;28;20306;-74
2023/10/24 13:06:44;;;;;;;1.98;1.88;;;;;;;;;;6277637;28;20343;-73
2023/10/24 13:09:47;;;;;;;1.95;1.50;;;;;;;;;;6291351;28;20369;-75
2023/10/24 13:12:51;;;;;;;5.43;1.70;;;;;;;;;;6273732;28;20322;-73
2023/10/24 13:15:57;;;;;;;2.45;2.35;;;;;;;;;;6281855;28;20302;-72
2023/10/24 13:19:01;;;;;;;4.28;3.80;;;;;;;;;;6281815;28;20288;-73
2023/10/24 13:22:05;;;;;;;2.15;2.05;;;;;;;;;;6280761;28;20243;-74
2023/10/24 13:25:09;;;;;;;4.43;3.00;;;;;;;;;;6270709;28;20287;-72
2023/10/24 13:28:13;;;;;;;1.98;1.88;;;;;;;;;;6281722;28;20295;-72
2023/10/24 13:31:18;;;;;;;1.88;1.88;;;;;;;;;;6278541;28;20303;-71
2023/10/24 13:34:22;;;;;;;2.28;2.08;;;;;;;;;;6281123;28;20314;-73
2023/10/24 13:37:46;;;;;;;1.58;1.50;;;;;;;;;;6278474;28;20483;-70
2023/10/24 13:40:50;;;;;;;1.90;1.90;;;;;;;;;;6280113;28;20728;-70
2023/10/24 13:43:57;;;;;;;1.80;1.70;;;;;;;;;;6280670;28;20607;-72
2023/10/24 13:47:02;;;;;;;1.90;1.80;;;;;;;;;;6279977;28;20311;-73
2023/10/24 13:50:08;;;;;;;2.35;2.15;;;;;;;;;;6280320;28;20494;-72
2023/10/24 13:53:12;;;;;;;2.47;1.70;;;;;;;;;;6271374;28;20395;-72
2023/10/24 13:56:16;;;;;;;1.85;1.80;;;;;;;;;;6280563;28;20317;-74
2023/10/24 13:59:20;;;;;;;2.00;1.90;;;;;;;;;;6280010;28;20322;-72
2023/10/24 14:02:25;;;;;;;2.05;1.98;;;;;;;;;;6280553;28;20298;-74
2023/10/24 14:05:30;;;;;;;2.30;2.10;;;;;;;;;;6280017;28;20298;-72
2023/10/24 14:08:34;;;;;;;1.67;1.58;;;;;;;;;;6281068;28;20470;-73
2023/10/24 14:11:38;;;;;;;1.63;1.63;;;;;;;;;;6278877;28;20346;-72
2023/10/24 14:14:43;;;;;;;1.90;1.90;;;;;;;;;;6280517;28;20290;-72
2023/10/24 14:17:48;;;;;;;1.70;1.70;;;;;;;;;;6281290;28;20325;-73
2023/10/24 14:20:52;;;;;;;2.00;1.90;;;;;;;;;;6279620;28;20350;-73
2023/10/24 14:23:56;;;;;;;2.88;1.80;;;;;;;;;;6279610;28;20286;-72
2023/10/24 14:27:03;;;;;;;1.83;1.73;;;;;;;;;;6267909;28;20478;-72
2023/10/24 14:30:08;;;;;;;2.38;1.52;;;;;;;;;;6279026;28;20466;-72
2023/10/24 14:33:14;;;;;;;2.38;2.22;;;;;;;;;;6277370;28;20508;-73
2023/10/24 14:36:18;;;;;;;2.15;1.60;;;;;;;;;;6287744;28;20292;-72
2023/10/24 14:39:22;;;;;;;3.03;1.80;;;;;;;;;;6279483;28;20311;-72
2023/10/24 14:42:26;;;;;;;1.83;1.77;;;;;;;;;;6277304;28;20322;-73
2023/10/24 14:45:30;;;;;;;1.60;1.60;;;;;;;;;;6248747;28;20290;-73
2023/10/24 14:48:35;;;;;;;1.85;1.85;;;;;;;;;;6292925;28;20382;-73
2023/10/24 14:51:41;;;;;;;1.90;1.70;;;;;;;;;;6279360;28;20298;-74
2023/10/24 14:54:45;;;;;;;1.70;1.70;;;;;;;;;;6271031;28;20295;-72
2023/10/24 14:57:49;;;;;;;1.85;1.75;;;;;;;;;;6283188;28;20290;-72
2023/10/24 15:00:53;;;;;;;2.42;2.05;;;;;;;;;;6285405;28;20492;-73
2023/10/24 15:03:58;;;;;;;1.67;1.65;;;;;;;;;;6296059;28;20482;-72
2023/10/24 15:07:02;;;;;;;2.78;1.90;;;;;;;;;;6288363;28;20298;-72
2023/10/24 15:10:08;;;;;;;1.85;1.75;;;;;;;;;;6285890;28;20310;-74
2023/10/24 15:13:11;;;;;;;2.92;2.00;;;;;;;;;;6262263;28;20299;-72
2023/10/24 15:16:15;;;;;;;1.80;1.70;;;;;;;;;;6262080;28;20295;-73
2023/10/24 15:19:21;;;;;;;1.80;1.73;;;;;;;;;;6261766;28;20303;-73
2023/10/24 15:22:25;;;;;;;1.98;1.88;;;;;;;;;;6263039;28;20632;-73
2023/10/24 15:25:29;;;;;;;4.25;2.20;;;;;;;;;;6267689;28;20314;-73
2023/10/24 15:28:33;;;;;;;3.08;1.83;;;;;;;;;;6262490;28;20448;-74
2023/10/24 15:31:37;;;;;;;2.92;1.75;;;;;;;;;;6266786;28;20591;-73
2023/10/24 15:34:42;;;;;;;1.92;1.92;;;;;;;;;;6286880;28;20307;-72
2023/10/24 15:37:46;;;;;;;1.80;1.80;;;;;;;;;;6287531;28;20291;-73
2023/10/24 15:40:50;;;;;;;1.63;1.63;;;;;;;;;;6275236;28;20611;-71
2023/10/24 15:43:54;;;;;;;1.50;1.50;;;;;;;;;;6275035;28;20576;-72
2023/10/24 15:46:59;;;;;;;1.70;1.70;;;;;;;;;;6286710;28;20355;-73
2023/10/24 15:50:04;;;;;;;1.95;1.95;;;;;;;;;;6286417;28;20291;-73
2023/10/24 15:53:08;;;;;;;2.22;2.17;;;;;;;;;;6286777;28;20294;-74
2023/10/24 15:56:12;;;;;;;2.03;2.03;;;;;;;;;;6285609;28;20487;-73
2023/10/24 15:59:16;;;;;;;1.83;1.73;;;;;;;;;;6292753;28;20235;-72
2023/10/24 16:02:20;;;;;;;2.00;1.90;;;;;;;;;;6286659;28;20306;-75
2023/10/24 16:05:26;;;;;;;2.20;2.10;;;;;;;;;;6291144;28;20302;-73
2023/10/24 16:08:29;;;;;;;1.85;1.80;;;;;;;;;;6284512;28;20303;-73
2023/10/24 16:11:34;;;;;;;2.03;1.92;;;;;;;;;;6269455;28;20310;-74
2023/10/24 16:14:38;;;;;;;2.15;1.70;;;;;;;;;;6281761;28;20341;-73
2023/10/24 16:17:41;;;;;;;2.70;1.83;;;;;;;;;;6282431;28;20315;-74
2023/10/24 16:20:47;;;;;;;2.22;2.13;;;;;;;;;;6283543;28;20306;-72
2023/10/24 16:23:51;;;;;;;3.20;2.00;;;;;;;;;;6282706;28;20290;-75
2023/10/24 16:26:55;;;;;;;1.73;1.70;;;;;;;;;;6282665;28;20575;-71
2023/10/24 16:29:59;;;;;;;1.83;1.70;;;;;;;;;;6282413;28;20302;-73
2023/10/24 16:33:03;;;;;;;2.58;1.77;;;;;;;;;;6255139;28;20291;-75
2023/10/24 16:36:09;;;;;;;1.90;1.90;;;;;;;;;;6282029;28;20591;-72
2023/10/24 16:39:12;;;;;;;1.73;1.65;;;;;;;;;;6282069;28;20525;-73
2023/10/24 16:42:18;;;;;;;1.92;1.83;;;;;;;;;;6281971;28;20484;-73
2023/10/24 16:45:22;;;;;;;2.65;1.92;;;;;;;;;;6282716;28;20294;-73
2023/10/24 16:48:27;;;;;;;1.70;1.70;;;;;;;;;;6282971;28;20548;-74
2023/10/24 16:51:33;;;;;;;2.70;1.58;;;;;;;;;;6272572;28;20488;-73
2023/10/24 16:54:36;;;;;;;1.95;1.55;;;;;;;;;;6281591;28;20291;-75
2023/10/24 16:57:40;;;;;;;1.63;1.60;;;;;;;;;;6282040;28;20298;-74
2023/10/24 17:00:45;;;;;;;1.60;1.60;;;;;;;;;;6281610;28;20298;-72
2023/10/24 17:03:49;;;;;;;3.70;1.48;;;;;;;;;;6281327;28;20287;-74
2023/10/24 17:06:54;;;;;;;1.40;1.40;;;;;;;;;;6281683;28;20286;-72
2023/10/24 17:09:58;;;;;;;1.83;1.80;;;;;;;;;;6279622;28;20585;-74
2023/10/24 17:13:03;;;;;;;1.98;1.88;;;;;;;;;;6282111;28;20303;-70
2023/10/24 17:16:07;;;;;;;1.73;1.70;;;;;;;;;;6271267;28;20302;-72
2023/10/24 17:19:11;;;;;;;2.00;1.90;;;;;;;;;;6281375;28;20545;-73
2023/10/24 17:22:16;;;;;;;2.15;1.70;;;;;;;;;;6279253;28;20318;-74
2023/10/24 17:25:20;;;;;;;1.65;1.65;;;;;;;;;;6280842;28;20585;-74
2023/10/24 17:28:24;;;;;;;1.45;1.40;;;;;;;;;;6281277;28;20291;-72
2023/10/24 17:31:28;;;;;;;1.52;1.52;;;;;;;;;;6269793;28;20412;-71
2023/10/24 17:34:33;;;;;;;1.77;1.65;;;;;;;;;;6263527;28;20307;-71
2023/10/24 17:37:38;;;;;;;1.75;1.60;;;;;;;;;;6256184;28;20313;-72
2023/10/24 17:40:43;;;;;;;1.67;1.60;;;;;;;;;;6255640;28;20303;-72
2023/10/24 17:43:47;;;;;;;1.75;1.67;;;;;;;;;;6255487;28;20305;-72
2023/10/24 17:46:51;;;;;;;2.88;1.80;;;;;;;;;;6256048;28;20494;-74
2023/10/24 17:49:56;;;;;;;1.83;1.80;;;;;;;;;;6253719;28;20296;-73
2023/10/24 17:53:03;;;;;;;2.05;2.03;;;;;;;;;;6255664;28;20636;-72
2023/10/24 17:56:07;;;;;;;1.80;1.73;;;;;;;;;;6254965;28;20299;-71
2023/10/24 17:59:11;;;;;;;1.75;1.70;;;;;;;;;;6255209;28;20597;-72
2023/10/24 18:02:15;;;;;;;2.40;2.30;;;;;;;;;;6255589;28;20287;-73
2023/10/24 18:05:19;;;;;;;1.88;1.80;;;;;;;;;;6255226;28;20651;-74
2023/10/24 18:08:25;;;;;;;3.15;2.00;;;;;;;;;;6255752;28;20300;-74
2023/10/24 18:11:29;;;;;;;1.83;1.83;;;;;;;;;;6253012;28;20303;-71
2023/10/24 18:14:33;;;;;;;2.03;1.92;;;;;;;;;;6254876;28;20303;-72
2023/10/24 18:17:40;;;;;;;3.00;1.95;;;;;;;;;;6255147;28;20300;-72
2023/10/24 18:20:44;;;;;;;1.58;1.50;;;;;;;;;;6254643;28;20307;-74
2023/10/24 18:23:49;;;;;;;1.77;1.77;;;;;;;;;;6269290;28;20444;-74
2023/10/24 18:26:53;;;;;;;1.95;1.95;;;;;;;;;;6255249;28;20292;-73
2023/10/24 18:29:57;;;;;;;1.85;1.75;;;;;;;;;;6254513;28;20283;-72